createdAt,value
2018-06-02T00:00:18.685Z,83.60
2018-06-02T00:02:47.049Z,83.80
2018-06-02T00:05:15.636Z,84.00
2018-06-02T00:07:44.014Z,84.00
2018-06-02T00:10:12.395Z,83.80
2018-06-02T00:12:42.717Z,83.80
2018-06-02T00:15:11.762Z,83.70
2018-06-02T00:17:40.094Z,83.90
2018-06-02T00:20:08.406Z,83.80
2018-06-02T00:22:36.819Z,83.80
2018-06-02T00:25:05.118Z,84.00
2018-06-02T00:27:33.424Z,84.00
2018-06-02T00:30:01.728Z,83.90
2018-06-02T00:32:29.996Z,84.00
2018-06-02T00:34:58.300Z,83.90
2018-06-02T00:37:26.640Z,83.90
2018-06-02T00:39:54.965Z,83.90
2018-06-02T00:42:23.272Z,84.00
2018-06-02T00:44:52.304Z,84.10
2018-06-02T00:47:22.483Z,84.20
2018-06-02T00:49:51.545Z,84.20
2018-06-02T00:52:19.842Z,84.20
2018-06-02T00:55:00.070Z,84.20
2018-06-02T00:57:28.363Z,84.40
2018-06-02T00:59:56.644Z,84.30
2018-06-02T01:02:25.046Z,84.30
2018-06-02T01:04:54.110Z,84.00
2018-06-02T01:07:22.409Z,84.10
2018-06-02T01:09:50.792Z,84.00
2018-06-02T01:12:19.066Z,84.00
2018-06-02T01:14:47.364Z,83.90
2018-06-02T01:17:16.559Z,83.70
2018-06-02T01:19:45.695Z,83.40
2018-06-02T01:22:14.038Z,83.50
2018-06-02T01:24:43.262Z,82.60
2018-06-02T01:27:11.577Z,82.80
2018-06-02T01:29:39.991Z,82.50
2018-06-02T01:32:09.098Z,82.30
2018-06-02T01:34:38.255Z,82.50
2018-06-02T01:37:06.643Z,82.50
2018-06-02T01:39:35.002Z,82.60
2018-06-02T01:42:03.317Z,82.50
2018-06-02T01:44:31.677Z,82.50
2018-06-02T01:47:00.008Z,81.90
2018-06-02T01:49:29.164Z,82.20
2018-06-02T01:51:57.477Z,82.30
2018-06-02T01:54:25.832Z,82.00
2018-06-02T01:56:55.014Z,81.70
2018-06-02T01:59:23.295Z,81.70
2018-06-02T02:01:51.687Z,81.70
2018-06-02T02:04:19.980Z,81.40
2018-06-02T02:06:48.368Z,81.50
2018-06-02T02:09:16.745Z,81.10
2018-06-02T02:11:45.055Z,81.30
2018-06-02T02:14:13.349Z,81.20
2018-06-02T02:19:44.315Z,80.50
2018-06-02T02:22:12.609Z,80.40
2018-06-02T02:24:40.913Z,80.60
2018-06-02T02:27:09.238Z,80.60
2018-06-02T02:29:37.563Z,80.90
2018-06-02T02:32:05.838Z,81.00
2018-06-02T02:34:34.184Z,81.00
2018-06-02T02:37:02.479Z,80.90
2018-06-02T02:39:30.877Z,80.90
2018-06-02T02:41:59.225Z,80.90
2018-06-02T02:44:27.493Z,80.90
2018-06-02T02:46:55.822Z,80.90
2018-06-02T02:49:24.974Z,80.80
2018-06-02T02:51:53.309Z,80.90
2018-06-02T02:54:22.372Z,80.00
2018-06-02T02:56:50.652Z,80.10
2018-06-02T02:59:18.944Z,80.00
2018-06-02T03:01:47.197Z,80.00
2018-06-02T03:04:15.477Z,80.10
2018-06-02T03:06:43.780Z,80.40
2018-06-02T03:09:12.138Z,80.40
2018-06-02T03:11:40.445Z,80.50
2018-06-02T03:14:08.747Z,80.50
2018-06-02T03:16:37.032Z,80.00
2018-06-02T03:19:05.336Z,79.80
2018-06-02T03:21:33.622Z,78.80
2018-06-02T03:24:01.908Z,78.20
2018-06-02T03:26:30.246Z,77.60
2018-06-02T03:28:58.513Z,77.40
2018-06-02T03:31:26.816Z,77.00
2018-06-02T03:33:55.122Z,76.70
2018-06-02T03:36:23.554Z,76.40
2018-06-02T03:38:51.991Z,76.40
2018-06-02T03:41:21.240Z,76.30
2018-06-02T03:43:49.534Z,76.00
2018-06-02T03:46:17.838Z,76.10
2018-06-02T03:48:46.141Z,76.10
2018-06-02T03:51:15.421Z,76.00
2018-06-02T03:53:43.729Z,75.90
2018-06-02T03:56:12.824Z,75.80
2018-06-02T03:58:41.099Z,75.80
2018-06-02T04:01:09.350Z,76.10
2018-06-02T04:03:37.602Z,76.30
2018-06-02T04:06:05.884Z,75.90
2018-06-02T04:08:34.153Z,75.70
2018-06-02T04:11:02.469Z,75.60
2018-06-02T04:13:30.765Z,75.60
2018-06-02T04:15:59.061Z,75.60
2018-06-02T04:18:28.142Z,75.60
2018-06-02T04:20:56.470Z,75.50
2018-06-02T04:23:24.792Z,76.50
2018-06-02T04:25:53.076Z,75.30
2018-06-02T04:28:21.368Z,75.10
2018-06-02T04:30:49.714Z,74.90
2018-06-02T04:33:18.000Z,74.80
2018-06-02T04:35:46.330Z,74.70
2018-06-02T04:38:14.651Z,74.70
2018-06-02T04:40:42.913Z,74.70
2018-06-02T04:43:11.343Z,74.70
2018-06-02T04:45:39.610Z,75.20
2018-06-02T04:48:09.790Z,74.20
2018-06-02T04:50:38.456Z,74.20
2018-06-02T04:53:07.761Z,74.20
2018-06-02T04:55:36.109Z,73.80
2018-06-02T04:58:05.149Z,73.20
2018-06-02T05:00:33.401Z,73.20
2018-06-02T05:03:01.812Z,73.30
2018-06-02T05:05:30.207Z,72.80
2018-06-02T05:07:58.573Z,72.70
2018-06-02T05:10:29.974Z,72.60
2018-06-02T05:12:58.319Z,72.10
2018-06-02T05:15:26.767Z,72.20
2018-06-02T05:17:55.121Z,72.20
2018-06-02T05:20:23.607Z,72.10
2018-06-02T05:22:52.818Z,72.00
2018-06-02T05:25:22.507Z,71.60
2018-06-02T05:27:55.105Z,71.50
2018-06-02T05:30:23.661Z,71.50
2018-06-02T05:32:51.914Z,70.90
2018-06-02T05:35:20.203Z,71.00
2018-06-02T05:37:48.941Z,70.80
2018-06-02T05:40:17.593Z,70.60
2018-06-02T05:42:46.067Z,70.30
2018-06-02T05:45:14.553Z,70.10
2018-06-02T05:47:42.927Z,70.00
2018-06-02T05:50:11.284Z,69.80
2018-06-02T05:52:39.603Z,69.60
2018-06-02T05:55:09.628Z,69.80
2018-06-02T05:57:42.841Z,69.90
2018-06-02T06:00:12.169Z,69.70
2018-06-02T06:02:46.544Z,69.90
2018-06-02T06:05:19.398Z,69.60
2018-06-02T06:07:55.078Z,69.70
2018-06-02T06:10:23.846Z,70.00
2018-06-02T06:12:58.080Z,70.20
2018-06-02T06:15:40.517Z,70.00
2018-06-02T06:18:08.955Z,70.00
2018-06-02T06:20:41.037Z,69.90
2018-06-02T06:23:09.380Z,70.00
2018-06-02T06:25:40.642Z,69.20
2018-06-02T06:28:10.001Z,69.10
2018-06-02T06:30:46.350Z,69.00
2018-06-02T06:33:17.278Z,68.60
2018-06-02T06:35:52.863Z,68.80
2018-06-02T06:38:24.830Z,69.20
2018-06-02T06:40:54.259Z,68.80
2018-06-02T06:43:32.366Z,68.80
2018-06-02T06:46:11.551Z,68.40
2018-06-02T06:51:35.843Z,67.30
2018-06-02T06:54:07.933Z,66.70
2018-06-02T06:59:23.569Z,66.80
2018-06-02T07:02:02.532Z,66.80
2018-06-02T07:07:40.828Z,66.70
2018-06-02T07:10:21.803Z,67.10
2018-06-02T07:18:04.578Z,67.30
2018-06-02T07:21:05.325Z,66.40
2018-06-02T07:23:51.618Z,66.00
2018-06-02T07:26:27.714Z,65.80
2018-06-02T07:29:02.160Z,66.30
2018-06-02T07:31:41.150Z,66.40
2018-06-02T07:34:10.084Z,66.00
2018-06-02T07:36:44.341Z,65.40
2018-06-02T07:39:22.121Z,65.70
2018-06-02T07:41:57.610Z,64.00
2018-06-02T07:47:21.538Z,63.70
2018-06-02T07:49:53.904Z,63.80
2018-06-02T07:52:32.177Z,64.00
2018-06-02T07:55:05.380Z,63.30
2018-06-02T07:57:34.105Z,62.70
2018-06-02T08:00:18.108Z,62.30
2018-06-02T08:02:46.944Z,61.80
2018-06-02T08:05:15.902Z,61.00
2018-06-02T08:07:44.615Z,60.80
2018-06-02T08:13:13.310Z,60.60
2018-06-02T08:15:42.740Z,60.70
2018-06-02T08:18:11.751Z,59.90
2018-06-02T08:20:51.965Z,59.80
2018-06-02T08:23:21.242Z,59.80
2018-06-02T08:25:49.793Z,59.90
2018-06-02T08:28:29.001Z,59.70
2018-06-02T08:33:42.232Z,60.00
2018-06-02T08:36:22.207Z,59.50
2018-06-02T08:38:51.455Z,59.50
2018-06-02T08:41:25.582Z,59.00
2018-06-02T08:43:54.075Z,59.40
2018-06-02T08:49:33.655Z,58.40
2018-06-02T09:11:31.477Z,60.00
2018-06-02T09:20:04.912Z,58.40
2018-06-02T09:26:00.932Z,58.50
2018-06-02T09:28:47.178Z,58.70
2018-06-02T09:37:33.562Z,59.20
2018-06-02T09:43:44.623Z,59.60
2018-06-02T09:52:23.038Z,60.10
2018-06-02T09:55:26.124Z,59.50
2018-06-02T09:58:21.669Z,59.70
2018-06-02T10:03:37.403Z,59.80
2018-06-02T10:09:28.356Z,60.30
2018-06-02T10:12:08.337Z,59.80
2018-06-02T10:14:59.055Z,58.20
2018-06-02T10:29:32.382Z,58.00
2018-06-02T10:35:04.632Z,58.70
2018-06-02T10:38:03.502Z,58.90
2018-06-02T10:50:34.731Z,57.70
2018-06-02T10:56:27.205Z,57.60
2018-06-02T10:59:06.881Z,57.90
2018-06-02T11:07:32.573Z,57.90
2018-06-02T11:10:13.666Z,58.10
2018-06-02T11:13:00.253Z,57.90
2018-06-02T11:15:53.292Z,57.70
2018-06-02T11:18:41.834Z,57.80
2018-06-02T11:21:23.463Z,57.90
2018-06-02T11:31:31.395Z,58.00
2018-06-02T11:37:24.750Z,58.30
2018-06-02T11:48:47.721Z,57.80
2018-06-02T11:54:24.148Z,57.90
2018-06-02T12:02:33.008Z,57.60
2018-06-02T12:05:18.810Z,57.50
2018-06-02T12:11:00.581Z,57.00
2018-06-02T12:20:06.543Z,57.10
2018-06-02T12:22:53.922Z,57.50
2018-06-02T12:28:35.729Z,57.40
2018-06-02T12:37:10.701Z,55.90
2018-06-02T12:39:59.375Z,54.40
2018-06-02T12:42:47.726Z,54.60
2018-06-02T13:13:39.612Z,53.80
2018-06-02T13:32:22.240Z,53.70
2018-06-02T13:35:06.246Z,53.20
2018-06-02T13:43:25.833Z,53.30
2018-06-02T13:46:09.912Z,54.50
2018-06-02T13:58:23.974Z,50.20
2018-06-02T14:04:19.069Z,49.50
2018-06-02T14:42:31.021Z,45.10
2018-06-02T14:48:26.192Z,44.30
2018-06-02T15:06:09.930Z,46.40
2018-06-02T15:08:55.793Z,46.90
2018-06-02T15:20:27.620Z,48.00
2018-06-02T15:29:39.976Z,47.20
2018-06-02T15:35:45.300Z,46.20
2018-06-02T15:41:24.205Z,46.70
2018-06-02T15:44:12.829Z,47.00
2018-06-02T15:56:50.437Z,48.20
2018-06-02T16:11:17.924Z,47.60
2018-06-02T16:13:56.429Z,48.30
2018-06-02T16:31:56.699Z,46.60
2018-06-02T16:34:40.584Z,47.00
2018-06-02T16:40:03.698Z,47.20
2018-06-02T16:43:00.266Z,47.30
2018-06-02T16:48:45.760Z,49.10
2018-06-02T16:51:52.895Z,49.30
2018-06-02T16:57:53.656Z,49.60
2018-06-02T17:16:33.876Z,52.40
2018-06-02T17:22:18.341Z,52.90
2018-06-02T17:25:02.644Z,53.00
2018-06-02T17:52:09.438Z,53.10
2018-06-02T17:54:48.093Z,53.90
2018-06-02T18:06:24.916Z,53.50
2018-06-02T18:09:10.886Z,53.60
2018-06-02T18:11:53.373Z,53.80
2018-06-02T19:32:30.407Z,61.80
2018-06-02T19:35:26.707Z,62.00
2018-06-02T21:10:54.549Z,62.40
2018-06-02T21:13:25.611Z,63.80
2018-06-02T21:15:55.416Z,63.90
2018-06-02T21:18:27.612Z,64.20
2018-06-02T21:20:57.559Z,64.30
2018-06-02T21:23:27.279Z,64.40
2018-06-02T21:26:01.116Z,64.60
2018-06-02T21:28:30.701Z,64.70
2018-06-02T21:31:00.764Z,64.80
2018-06-02T21:33:30.134Z,64.90
2018-06-02T21:35:59.641Z,65.10
2018-06-02T21:38:29.850Z,65.20
2018-06-02T21:40:59.459Z,65.20
2018-06-02T21:43:29.138Z,65.40
2018-06-02T21:45:58.478Z,65.50
2018-06-02T21:48:28.508Z,65.60
2018-06-02T21:50:58.018Z,65.60
2018-06-02T21:53:27.960Z,65.70
2018-06-02T21:55:57.355Z,65.70
2018-06-02T21:58:26.782Z,65.70
2018-06-02T22:00:56.245Z,65.90
2018-06-02T22:03:26.094Z,66.10
2018-06-02T22:05:55.567Z,66.10
2018-06-02T22:08:25.408Z,66.20
2018-06-02T22:10:54.894Z,66.20
2018-06-02T22:13:24.751Z,66.30
2018-06-02T22:15:54.247Z,66.40
2018-06-02T22:18:24.179Z,66.40
2018-06-02T22:20:53.976Z,66.40
2018-06-02T22:23:23.892Z,66.50
2018-06-02T22:25:54.223Z,66.50
2018-06-02T22:28:24.575Z,66.60
2018-06-02T22:30:54.557Z,66.70
2018-06-02T22:33:24.994Z,66.90
2018-06-02T22:35:54.786Z,67.00
2018-06-02T22:38:24.959Z,67.20
2018-06-02T22:40:55.033Z,67.50
2018-06-02T22:43:24.511Z,68.40
2018-06-02T22:45:54.020Z,67.80
2018-06-02T22:48:23.536Z,68.10
2018-06-02T22:50:53.029Z,68.20
2018-06-02T22:53:22.644Z,68.30
2018-06-02T22:55:52.162Z,68.50
2018-06-02T22:58:21.712Z,68.60
2018-06-02T23:00:51.367Z,68.70
2018-06-02T23:03:20.790Z,68.80
2018-06-02T23:05:49.985Z,68.90
2018-06-02T23:08:19.397Z,69.00
2018-06-02T23:10:48.666Z,69.20
2018-06-02T23:13:17.943Z,69.30
2018-06-02T23:15:47.414Z,69.50
2018-06-02T23:18:16.546Z,69.60
2018-06-02T23:20:45.751Z,69.70
2018-06-02T23:23:14.938Z,69.90
2018-06-02T23:25:44.128Z,69.90
2018-06-02T23:28:13.321Z,70.00
2018-06-02T23:30:42.489Z,70.10
2018-06-02T23:33:12.721Z,70.40
2018-06-02T23:35:41.859Z,70.40
2018-06-02T23:38:11.208Z,70.50
2018-06-02T23:40:40.279Z,70.70
2018-06-02T23:43:09.797Z,70.90
2018-06-02T23:45:39.006Z,71.20
2018-06-02T23:48:08.321Z,71.30
2018-06-02T23:50:38.060Z,71.50
2018-06-02T23:53:07.256Z,71.70
2018-06-02T23:55:36.469Z,71.70
2018-06-02T23:58:05.654Z,71.90
